Time;durP1;ratioP1;P1;durP2;ratioP2;P2;SDS_P1;SDS_P2;PMS_P1;PMS_P2;Temp;Humidity;BMP_temperature;BMP_pressure;BME280_temperature;BME280_humidity;BME280_pressure;Samples;Min_cycle;Max_cycle;Signal;HPM_P1;HPM_P2
2021/01/01 00:00:33;;;;;;;113.18;78.85;;;5.10;72.30;;;;;;5029959;28;20041;-63
2021/01/01 00:03:00;;;;;;;113.50;79.93;;;5.10;72.40;;;;;;5021540;28;20033;-62
2021/01/01 00:05:29;;;;;;;115.85;82.25;;;5.20;72.10;;;;;;5029674;28;20068;-69
2021/01/01 00:07:55;;;;;;;116.53;87.25;;;5.20;72.00;;;;;;5034129;28;20025;-66
2021/01/01 00:10:21;;;;;;;108.20;76.65;;;5.10;72.20;;;;;;5040304;28;20187;-65
2021/01/01 00:12:47;;;;;;;95.68;66.72;;;5.10;72.60;;;;;;5011931;28;20041;-64
2021/01/01 00:15:13;;;;;;;79.63;57.25;;;5.00;72.60;;;;;;5024063;28;20123;-64
2021/01/01 00:17:39;;;;;;;70.68;52.22;;;5.00;72.60;;;;;;5031334;28;20170;-65
2021/01/01 00:20:07;;;;;;;72.03;50.05;;;5.00;72.60;;;;;;5031154;28;20127;-65
2021/01/01 00:22:32;;;;;;;74.55;50.42;;;4.90;73.60;;;;;;5030320;28;20036;-65
2021/01/01 00:24:58;;;;;;;64.82;46.47;;;4.90;72.90;;;;;;5025412;28;20397;-65
2021/01/01 00:27:28;;;;;;;61.88;43.88;;;4.90;73.00;;;;;;5011726;28;20026;-65
2021/01/01 00:29:54;;;;;;;58.80;40.50;;;4.90;73.30;;;;;;5015969;28;20471;-65
2021/01/01 00:32:19;;;;;;;51.65;37.47;;;4.90;73.40;;;;;;5031740;28;20108;-65
2021/01/01 00:34:45;;;;;;;50.88;35.60;;;4.80;74.60;;;;;;5029163;28;20030;-64
2021/01/01 00:37:10;;;;;;;51.50;36.35;;;4.90;75.10;;;;;;5031251;28;20155;-65
2021/01/01 00:39:36;;;;;;;40.15;31.27;;;4.80;74.10;;;;;;5028859;28;20504;-66
2021/01/01 00:42:03;;;;;;;38.60;26.08;;;4.70;74.50;;;;;;5010603;28;20113;-65
2021/01/01 00:44:29;;;;;;;31.52;24.30;;;4.90;73.50;;;;;;5011776;28;20047;-64
2021/01/01 00:46:54;;;;;;;35.47;23.90;;;4.90;73.30;;;;;;5020040;28;20409;-64
2021/01/01 00:49:20;;;;;;;35.50;27.42;;;4.80;73.80;;;;;;5013109;28;20041;-65
2021/01/01 00:51:46;;;;;;;39.70;28.00;;;4.80;73.80;;;;;;5031285;28;20095;-65
2021/01/01 00:54:12;;;;;;;33.35;26.98;;;4.80;74.10;;;;;;5019055;28;20092;-64
2021/01/01 00:56:37;;;;;;;34.70;27.25;;;4.70;74.30;;;;;;5011363;28;20105;-65
2021/01/01 00:59:03;;;;;;;37.95;28.02;;;4.70;74.30;;;;;;5020564;28;20129;-64
2021/01/01 01:01:29;;;;;;;35.55;26.95;;;4.70;74.40;;;;;;5030898;28;20038;-64
2021/01/01 01:03:56;;;;;;;37.40;26.50;;;4.60;74.70;;;;;;5021227;28;20064;-65
2021/01/01 01:06:23;;;;;;;36.42;26.05;;;4.60;74.80;;;;;;5011182;28;20077;-65
2021/01/01 01:08:49;;;;;;;42.08;27.63;;;4.50;74.80;;;;;;5017508;28;20396;-64
2021/01/01 01:11:15;;;;;;;35.13;25.92;;;4.60;74.90;;;;;;5031020;28;20037;-64
2021/01/01 01:13:41;;;;;;;37.72;27.42;;;4.60;75.00;;;;;;5024321;28;20053;-64
2021/01/01 01:16:06;;;;;;;39.78;28.95;;;4.60;75.00;;;;;;5011304;28;20068;-65
2021/01/01 01:18:32;;;;;;;37.95;28.77;;;4.60;74.60;;;;;;5012135;28;20041;-64
2021/01/01 01:20:58;;;;;;;42.30;28.70;;;4.70;74.40;;;;;;5013703;28;20026;-64
2021/01/01 01:23:24;;;;;;;41.33;29.30;;;4.80;74.40;;;;;;5016330;28;20034;-64
2021/01/01 01:25:50;;;;;;;37.80;26.67;;;4.80;74.20;;;;;;5034312;28;20468;-64
2021/01/01 01:28:17;;;;;;;36.60;27.25;;;4.90;74.00;;;;;;5033832;28;20041;-64
2021/01/01 01:30:43;;;;;;;36.60;27.27;;;4.90;74.00;;;;;;5014491;28;20038;-65
2021/01/01 01:33:08;;;;;;;40.17;28.65;;;4.90;73.90;;;;;;5014116;28;20420;-62
2021/01/01 01:35:35;;;;;;;43.75;29.65;;;4.90;73.80;;;;;;5027018;28;20041;-63
2021/01/01 01:38:05;;;;;;;40.53;30.10;;;5.00;73.70;;;;;;5033849;28;20035;-61
2021/01/01 01:40:31;;;;;;;47.70;33.25;;;5.00;73.60;;;;;;5015332;28;20486;-63
2021/01/01 01:42:57;;;;;;;47.13;34.50;;;4.90;73.50;;;;;;5017763;28;20630;-62
2021/01/01 01:45:23;;;;;;;48.90;34.22;;;4.90;73.50;;;;;;5013901;28;20100;-63
2021/01/01 01:47:49;;;;;;;48.45;34.00;;;4.90;73.60;;;;;;5029744;28;21170;-63
2021/01/01 01:50:16;;;;;;;47.58;32.35;;;4.90;73.70;;;;;;5033885;28;20039;-63
2021/01/01 01:52:46;;;;;;;40.38;29.95;;;4.90;73.80;;;;;;5014855;28;20050;-63
2021/01/01 01:55:12;;;;;;;39.60;28.88;;;4.90;73.80;;;;;;5013559;28;20037;-63
2021/01/01 01:57:37;;;;;;;37.42;27.60;;;4.80;73.80;;;;;;5029633;28;20400;-63
2021/01/01 02:00:28;;;;;;;33.97;26.05;;;4.90;74.10;;;;;;5033771;28;20026;-64
2021/01/01 02:02:54;;;;;;;35.08;25.83;;;4.90;74.30;;;;;;5014375;28;20060;-64
2021/01/01 02:05:20;;;;;;;34.95;24.02;;;4.90;74.70;;;;;;5013593;28;20393;-63
2021/01/01 02:07:47;;;;;;;33.33;25.83;;;4.90;74.80;;;;;;5029898;28;20039;-63
2021/01/01 02:10:13;;;;;;;38.35;25.48;;;4.90;75.20;;;;;;5033523;28;20045;-64
2021/01/01 02:12:40;;;;;;;37.20;26.50;;;4.80;75.80;;;;;;5017309;28;20042;-64
2021/01/01 02:15:06;;;;;;;33.55;23.92;;;4.80;76.00;;;;;;5013121;28;20038;-64
2021/01/01 02:17:32;;;;;;;32.88;23.20;;;4.80;76.40;;;;;;5013652;28;20497;-63
2021/01/01 02:20:11;;;;;;;34.70;24.17;;;4.70;77.10;;;;;;5024671;28;20044;-61
2021/01/01 02:22:37;;;;;;;34.50;23.45;;;4.60;77.60;;;;;;5026147;28;20052;-60
2021/01/01 02:25:09;;;;;;;33.88;22.48;;;4.50;77.80;;;;;;5030335;28;20037;-64
2021/01/01 02:27:35;;;;;;;34.53;22.88;;;4.60;77.70;;;;;;5023411;28;20042;-66
2021/01/01 02:30:00;;;;;;;35.58;24.02;;;4.60;77.80;;;;;;5023244;28;20030;-68
2021/01/01 02:32:26;;;;;;;31.15;23.27;;;4.50;78.00;;;;;;5012226;28;20057;-61
2021/01/01 02:34:52;;;;;;;35.38;25.60;;;4.60;78.00;;;;;;5013704;28;20477;-59
2021/01/01 02:37:17;;;;;;;34.30;22.88;;;4.60;77.80;;;;;;5022916;28;20384;-67
2021/01/01 02:39:43;;;;;;;37.42;24.88;;;4.70;78.00;;;;;;5033142;28;20119;-61
2021/01/01 02:42:09;;;;;;;37.90;25.35;;;4.70;78.10;;;;;;5024154;28;20037;-64
2021/01/01 02:44:35;;;;;;;32.28;23.90;;;4.70;78.30;;;;;;5013189;28;20125;-60
2021/01/01 02:47:02;;;;;;;32.47;23.90;;;4.70;78.20;;;;;;5020772;28;20029;-62
2021/01/01 02:49:27;;;;;;;33.80;23.67;;;4.70;78.40;;;;;;5031780;28;20026;-60
2021/01/01 02:51:53;;;;;;;30.15;22.10;;;4.60;78.40;;;;;;5028264;28;20531;-62
2021/01/01 02:54:19;;;;;;;30.42;20.95;;;4.60;78.60;;;;;;5012917;28;20041;-60
2021/01/01 02:56:45;;;;;;;29.92;20.90;;;4.50;78.20;;;;;;5015130;28;20311;-62
2021/01/01 02:59:10;;;;;;;28.60;20.77;;;4.50;78.40;;;;;;5032928;28;20048;-61
2021/01/01 03:01:36;;;;;;;29.75;21.17;;;4.50;78.70;;;;;;5030577;28;20077;-62
2021/01/01 03:04:01;;;;;;;27.40;20.25;;;4.50;78.60;;;;;;5012528;28;20042;-62
2021/01/01 03:06:27;;;;;;;27.70;19.90;;;4.50;79.00;;;;;;5013152;28;20450;-61
2021/01/01 03:08:53;;;;;;;28.23;20.90;;;4.50;79.10;;;;;;5012819;28;20046;-61
2021/01/01 03:11:20;;;;;;;28.30;20.13;;;4.50;79.10;;;;;;5012499;28;20027;-63
2021/01/01 03:13:45;;;;;;;30.27;20.85;;;4.50;79.10;;;;;;5030917;28;20037;-62
2021/01/01 03:16:11;;;;;;;30.08;21.70;;;4.50;79.20;;;;;;5032640;28;20038;-62
2021/01/01 03:18:37;;;;;;;28.65;19.60;;;4.50;79.30;;;;;;5017765;28;20030;-64
2021/01/01 03:21:04;;;;;;;28.58;22.13;;;4.60;79.70;;;;;;5031410;28;20026;-62
2021/01/01 03:23:29;;;;;;;28.25;20.58;;;4.50;79.20;;;;;;5031162;28;20036;-62
2021/01/01 03:25:55;;;;;;;27.23;19.65;;;4.50;79.60;;;;;;5032429;28;20033;-62
2021/01/01 03:28:20;;;;;;;28.55;22.88;;;4.50;79.50;;;;;;5018323;28;20525;-63
2021/01/01 03:30:46;;;;;;;31.67;22.73;;;4.40;79.60;;;;;;5012950;28;20065;-62
2021/01/01 03:33:12;;;;;;;28.90;21.85;;;4.50;79.70;;;;;;5024935;28;20068;-62
2021/01/01 03:35:37;;;;;;;31.42;21.73;;;4.50;79.70;;;;;;5014448;28;20387;-62
2021/01/01 03:38:03;;;;;;;30.00;21.75;;;4.40;80.10;;;;;;5021503;28;20404;-61
2021/01/01 03:40:28;;;;;;;30.00;21.15;;;4.40;80.40;;;;;;5012221;28;20030;-61
2021/01/01 03:42:54;;;;;;;28.85;20.98;;;4.40;80.40;;;;;;5019481;28;20452;-63
2021/01/01 03:45:19;;;;;;;30.02;21.13;;;4.40;80.40;;;;;;5031906;28;20422;-62
2021/01/01 03:47:45;;;;;;;29.38;21.60;;;4.40;80.90;;;;;;5021677;28;20055;-62
2021/01/01 03:50:11;;;;;;;30.10;22.23;;;4.40;80.60;;;;;;5032056;28;20044;-62
2021/01/01 03:52:37;;;;;;;30.42;22.45;;;4.50;80.70;;;;;;5031797;28;20075;-62
2021/01/01 03:55:03;;;;;;;32.80;21.58;;;4.40;80.80;;;;;;5031562;28;20099;-62
2021/01/01 03:57:29;;;;;;;31.15;21.70;;;4.30;81.40;;;;;;5027787;28;20042;-62
2021/01/01 03:59:54;;;;;;;26.48;19.38;;;4.40;81.60;;;;;;5012011;28;20558;-61
2021/01/01 04:02:20;;;;;;;29.02;19.50;;;4.40;81.80;;;;;;5013168;28;20393;-62
2021/01/01 04:04:45;;;;;;;28.88;19.23;;;4.30;81.80;;;;;;5011561;28;20044;-60
2021/01/01 04:07:11;;;;;;;27.77;19.25;;;4.30;82.10;;;;;;5011444;28;20101;-60
2021/01/01 04:09:36;;;;;;;29.15;19.25;;;4.20;82.50;;;;;;5010558;28;20030;-61
2021/01/01 04:12:02;;;;;;;30.05;20.52;;;4.10;83.50;;;;;;5012376;28;20096;-61
2021/01/01 04:14:28;;;;;;;29.70;20.67;;;4.00;83.50;;;;;;5029365;28;20045;-61
2021/01/01 04:16:54;;;;;;;30.80;20.85;;;4.00;83.80;;;;;;5031341;28;20033;-61
2021/01/01 04:19:19;;;;;;;30.45;21.80;;;4.00;83.70;;;;;;5023424;28;20033;-62
2021/01/01 04:21:48;;;;;;;28.75;20.63;;;4.00;84.40;;;;;;5031598;28;20095;-62
2021/01/01 04:24:15;;;;;;;28.67;20.88;;;4.00;83.80;;;;;;5030595;28;20499;-61
2021/01/01 04:26:42;;;;;;;26.77;18.60;;;4.00;83.90;;;;;;5031522;28;20128;-62
2021/01/01 04:29:08;;;;;;;26.98;19.17;;;4.10;84.10;;;;;;5017601;28;20112;-62
2021/01/01 04:31:37;;;;;;;26.15;18.88;;;4.00;84.20;;;;;;5011791;28;20493;-62
2021/01/01 04:34:04;;;;;;;26.70;19.15;;;4.00;84.10;;;;;;5023439;28;20435;-62
2021/01/01 04:36:29;;;;;;;25.50;19.45;;;4.10;83.70;;;;;;5030510;28;20036;-62
2021/01/01 04:38:55;;;;;;;28.00;19.08;;;4.10;83.70;;;;;;5029580;28;20120;-63
2021/01/01 04:41:21;;;;;;;24.77;18.42;;;4.10;83.80;;;;;;5031483;28;20040;-62
2021/01/01 04:43:51;;;;;;;25.65;17.08;;;4.20;83.90;;;;;;5020478;28;20472;-62
2021/01/01 04:46:18;;;;;;;23.85;16.65;;;4.10;83.60;;;;;;5014791;28;20033;-61
2021/01/01 04:48:45;;;;;;;25.73;18.08;;;4.00;84.00;;;;;;5030557;28;20107;-62
2021/01/01 04:51:15;;;;;;;22.40;16.77;;;4.00;84.00;;;;;;5031398;28;20038;-60
2021/01/01 04:53:42;;;;;;;23.50;16.80;;;4.00;84.10;;;;;;5022198;28;20042;-63
2021/01/01 04:56:08;;;;;;;24.98;17.27;;;4.00;84.00;;;;;;5014751;28;20041;-61
2021/01/01 04:58:34;;;;;;;25.63;17.15;;;4.10;83.70;;;;;;5021011;28;20041;-62
2021/01/01 05:01:00;;;;;;;24.40;18.00;;;4.00;83.70;;;;;;5035229;28;20484;-62
2021/01/01 05:03:26;;;;;;;25.65;17.02;;;4.10;83.80;;;;;;5030311;28;20038;-61
2021/01/01 05:05:53;;;;;;;26.17;18.05;;;4.20;83.40;;;;;;5015030;28;20473;-62
2021/01/01 05:08:20;;;;;;;24.15;17.20;;;4.20;83.50;;;;;;5017640;28;20448;-63
2021/01/01 05:10:46;;;;;;;26.15;18.30;;;4.30;83.20;;;;;;5035321;28;20087;-61
2021/01/01 05:13:14;;;;;;;23.30;16.38;;;4.30;83.10;;;;;;5033464;28;20029;-61
2021/01/01 05:15:41;;;;;;;20.85;16.88;;;4.30;83.00;;;;;;5015075;28;20034;-61
2021/01/01 05:18:27;;;;;;;23.77;17.50;;;4.20;83.10;;;;;;5014688;28;20037;-61
2021/01/01 05:20:58;;;;;;;26.70;18.23;;;4.20;83.40;;;;;;5013791;28;20513;-61
2021/01/01 05:23:26;;;;;;;22.92;16.92;;;4.20;83.30;;;;;;5016225;28;20342;-61
2021/01/01 05:26:11;;;;;;;23.73;16.60;;;4.20;83.30;;;;;;5034498;28;20029;-62
2021/01/01 05:28:48;;;;;;;22.60;16.33;;;4.20;83.20;;;;;;5031043;28;20365;-62
2021/01/01 05:31:16;;;;;;;26.23;16.60;;;4.20;83.40;;;;;;5014730;28;20473;-62
2021/01/01 05:33:53;;;;;;;23.60;17.63;;;4.10;83.60;;;;;;5017381;28;20074;-62
2021/01/01 05:36:31;;;;;;;24.42;16.48;;;4.10;83.30;;;;;;5034490;28;20037;-62
2021/01/01 05:38:58;;;;;;;23.88;16.33;;;4.10;83.60;;;;;;5029176;28;20022;-62
2021/01/01 05:42:01;;;;;;;24.10;16.83;;;4.10;83.60;;;;;;5014193;28;20366;-61
2021/01/01 05:44:31;;;;;;;23.73;16.15;;;4.00;84.20;;;;;;5022325;28;20037;-61
2021/01/01 05:46:57;;;;;;;24.30;16.63;;;3.90;84.60;;;;;;5025532;28;20069;-62
2021/01/01 05:49:26;;;;;;;22.10;16.42;;;3.90;84.80;;;;;;5023387;28;20421;-62
2021/01/01 05:52:23;;;;;;;25.13;17.33;;;4.00;84.60;;;;;;5014378;28;20132;-62
2021/01/01 05:55:09;;;;;;;25.70;17.35;;;3.90;84.50;;;;;;5023874;28;20472;-61
2021/01/01 05:57:39;;;;;;;25.08;16.83;;;3.90;84.90;;;;;;5033911;28;20050;-62
2021/01/01 06:00:11;;;;;;;24.67;17.23;;;3.70;85.60;;;;;;5021962;28;20030;-64
2021/01/01 06:02:39;;;;;;;25.17;17.13;;;3.70;85.90;;;;;;5014195;28;20095;-62
2021/01/01 06:05:11;;;;;;;26.60;17.08;;;3.60;86.00;;;;;;5024878;28;20044;-62
2021/01/01 06:07:39;;;;;;;24.45;16.30;;;3.60;86.30;;;;;;5031435;28;20045;-62
2021/01/01 06:10:06;;;;;;;23.90;16.33;;;3.60;86.40;;;;;;5022877;28;20040;-61
2021/01/01 06:12:34;;;;;;;25.58;17.95;;;3.60;86.50;;;;;;5013935;28;20512;-61
2021/01/01 06:15:00;;;;;;;26.10;16.48;;;3.60;86.20;;;;;;5022623;28;20100;-61
2021/01/01 06:17:40;;;;;;;24.55;17.58;;;3.40;87.20;;;;;;5033631;28;20041;-62
2021/01/01 06:20:06;;;;;;;26.65;17.40;;;3.50;87.30;;;;;;5031688;28;20037;-61
2021/01/01 06:22:32;;;;;;;27.52;17.50;;;3.40;87.40;;;;;;5033619;28;20485;-62
2021/01/01 06:25:03;;;;;;;26.08;17.30;;;3.40;87.50;;;;;;5025805;28;20065;-62
2021/01/01 06:27:30;;;;;;;28.63;18.38;;;3.50;87.40;;;;;;5013846;28;20064;-62
2021/01/01 06:30:01;;;;;;;31.10;19.50;;;3.50;87.60;;;;;;5020718;28;20037;-62
2021/01/01 06:32:31;;;;;;;27.80;19.15;;;3.30;88.50;;;;;;5033502;28;20562;-61
2021/01/01 06:35:14;;;;;;;27.35;19.13;;;3.20;89.30;;;;;;5025920;28;20049;-62
2021/01/01 06:37:46;;;;;;;25.80;17.58;;;3.20;89.30;;;;;;5013791;28;20026;-62
2021/01/01 06:40:20;;;;;;;29.70;18.80;;;3.20;89.40;;;;;;5021721;28;20044;-61
2021/01/01 06:42:55;;;;;;;27.40;18.55;;;3.20;89.60;;;;;;5032373;28;20033;-62
2021/01/01 06:45:39;;;;;;;;;;;3.30;89.40;;;;;;5024279;28;20036;-63
2021/01/01 06:48:09;;;;;;;29.42;19.52;;;3.30;89.60;;;;;;5031218;28;19905;-62
2021/01/01 06:50:51;;;;;;;29.92;19.88;;;3.20;90.00;;;;;;5032628;28;20033;-63
2021/01/01 06:53:19;;;;;;;34.03;19.60;;;3.20;89.80;;;;;;5033243;28;20167;-61
2021/01/01 06:55:48;;;;;;;30.67;20.23;;;3.30;89.70;;;;;;5021857;28;20034;-62
2021/01/01 06:58:24;;;;;;;32.45;20.17;;;3.30;89.50;;;;;;5013205;28;20038;-62
2021/01/01 07:00:50;;;;;;;28.48;19.90;;;3.30;89.80;;;;;;5012607;28;20117;-63
2021/01/01 07:03:36;;;;;;;30.05;19.90;;;3.30;89.50;;;;;;5013053;28;20426;-62
2021/01/01 07:06:01;;;;;;;28.35;19.90;;;3.50;89.00;;;;;;5013015;28;20045;-61
2021/01/01 07:08:39;;;;;;;27.10;19.10;;;3.50;89.00;;;;;;5012991;28;20048;-63
2021/01/01 07:11:05;;;;;;;29.80;20.33;;;3.70;88.10;;;;;;5024581;28;20353;-61
2021/01/01 07:13:44;;;;;;;27.67;19.15;;;3.70;88.10;;;;;;5032661;28;20034;-62
2021/01/01 07:16:09;;;;;;;30.17;19.15;;;3.60;88.40;;;;;;5019625;28;20046;-62
2021/01/01 07:18:35;;;;;;;29.85;19.67;;;3.60;88.30;;;;;;5013635;28;20100;-61
2021/01/01 07:21:05;;;;;;;29.77;19.70;;;3.50;88.90;;;;;;5031558;28;20401;-61
2021/01/01 07:23:31;;;;;;;30.05;19.20;;;3.50;88.70;;;;;;5032402;28;20036;-60
2021/01/01 07:25:57;;;;;;;28.25;19.15;;;3.60;88.80;;;;;;5022719;28;20040;-64
2021/01/01 07:28:24;;;;;;;27.40;18.95;;;3.70;88.50;;;;;;5011631;28;20042;-61
2021/01/01 07:30:50;;;;;;;28.33;19.65;;;3.90;87.50;;;;;;5013568;28;20041;-59
2021/01/01 07:33:27;;;;;;;29.23;19.35;;;3.80;87.60;;;;;;5012435;28;20044;-61
2021/01/01 07:35:53;;;;;;;28.95;19.20;;;3.90;87.20;;;;;;5013528;28;20500;-60
2021/01/01 07:38:19;;;;;;;28.27;19.42;;;3.80;87.30;;;;;;5012339;28;20307;-60
2021/01/01 07:40:46;;;;;;;30.17;19.23;;;3.80;87.10;;;;;;5018213;28;20489;-60
2021/01/01 07:43:11;;;;;;;29.10;19.40;;;3.80;86.60;;;;;;5032143;28;20163;-56
2021/01/01 07:45:37;;;;;;;26.98;19.33;;;3.80;87.10;;;;;;5026764;28;20113;-59
2021/01/01 07:48:04;;;;;;;25.88;17.90;;;3.90;86.80;;;;;;5029976;28;20037;-60
2021/01/01 07:50:33;;;;;;;29.17;19.10;;;3.90;86.90;;;;;;5031319;28;20171;-60
2021/01/01 07:53:03;;;;;;;28.50;20.27;;;4.00;86.60;;;;;;5032016;28;20056;-61
2021/01/01 07:55:30;;;;;;;27.08;19.38;;;4.00;86.70;;;;;;5027515;28;20041;-61
2021/01/01 07:58:10;;;;;;;28.75;19.38;;;4.00;86.80;;;;;;5012017;28;20030;-59
2021/01/01 08:00:41;;;;;;;26.73;18.67;;;4.00;86.80;;;;;;5015997;28;20056;-60
2021/01/01 08:03:07;;;;;;;26.75;18.52;;;3.90;87.00;;;;;;5031695;28;20060;-62
2021/01/01 08:05:33;;;;;;;28.70;21.95;;;4.00;86.90;;;;;;5027892;28;20036;-60
2021/01/01 08:08:31;;;;;;;35.22;23.80;;;4.00;86.80;;;;;;5012122;28;20398;-60
2021/01/01 08:10:58;;;;;;;26.52;18.70;;;4.00;86.70;;;;;;4985014;28;20049;-61
2021/01/01 08:13:34;;;;;;;26.02;18.50;;;4.00;86.30;;;;;;5031732;28;20061;-62
2021/01/01 08:16:16;;;;;;;26.48;20.63;;;4.10;86.00;;;;;;5026116;28;20041;-61
2021/01/01 08:18:42;;;;;;;28.55;20.88;;;4.00;85.80;;;;;;5048695;23;20076;-62
2021/01/01 08:21:08;;;;;;;26.95;19.63;;;3.90;87.10;;;;;;5034730;28;20053;-61
2021/01/01 08:23:57;;;;;;;29.42;20.33;;;3.80;87.20;;;;;;5053546;28;20040;-62
2021/01/01 08:26:23;;;;;;;28.60;20.02;;;3.80;87.30;;;;;;5036764;28;20105;-61
2021/01/01 08:28:53;;;;;;;26.48;18.88;;;3.80;87.70;;;;;;5044063;28;20079;-62
2021/01/01 08:31:20;;;;;;;32.47;20.90;;;3.90;87.40;;;;;;5055203;28;20509;-62
2021/01/01 08:33:50;;;;;;;34.33;22.58;;;3.70;88.60;;;;;;5055765;28;20040;-62
2021/01/01 08:36:16;;;;;;;30.17;20.63;;;3.70;88.40;;;;;;5054981;28;20021;-62
2021/01/01 08:38:43;;;;;;;29.50;20.00;;;3.70;89.00;;;;;;5055659;28;20029;-63
2021/01/01 08:41:15;;;;;;;31.30;20.92;;;3.70;88.30;;;;;;5055407;28;20034;-62
2021/01/01 08:43:40;;;;;;;29.45;20.50;;;3.70;88.10;;;;;;5054363;28;20033;-62
2021/01/01 08:46:14;;;;;;;29.13;20.83;;;3.80;88.20;;;;;;5054895;28;20045;-63
2021/01/01 08:48:39;;;;;;;29.80;19.58;;;3.80;88.10;;;;;;5055479;28;20065;-60
2021/01/01 08:51:05;;;;;;;29.70;19.70;;;3.90;88.10;;;;;;5055096;28;20060;-63
2021/01/01 08:53:40;;;;;;;27.58;19.23;;;3.90;88.10;;;;;;5055336;28;20048;-63
2021/01/01 08:56:07;;;;;;;28.20;20.05;;;4.10;87.20;;;;;;5053977;28;20048;-62
2021/01/01 08:58:33;;;;;;;28.73;20.27;;;4.10;87.00;;;;;;5055229;28;20037;-63
2021/01/01 09:01:14;;;;;;;27.70;19.98;;;4.10;87.20;;;;;;5053523;28;20170;-62
2021/01/01 09:03:41;;;;;;;28.13;19.05;;;4.10;86.70;;;;;;5055207;28;20487;-63
2021/01/01 09:06:18;;;;;;;32.03;21.25;;;4.00;87.00;;;;;;5053279;28;20040;-62
2021/01/01 09:08:44;;;;;;;33.22;20.95;;;3.80;87.90;;;;;;5055106;28;20041;-61
2021/01/01 09:11:30;;;;;;;31.02;19.92;;;3.80;88.40;;;;;;5054930;28;20045;-63
2021/01/01 09:14:02;;;;;;;27.80;20.38;;;3.80;89.00;;;;;;5054486;28;20079;-63
2021/01/01 09:16:28;;;;;;;28.90;20.50;;;3.90;88.60;;;;;;5054658;28;20387;-63
2021/01/01 09:18:53;;;;;;;29.90;20.33;;;3.90;88.30;;;;;;5054373;28;20033;-62
2021/01/01 09:21:19;;;;;;;34.35;21.77;;;4.00;87.90;;;;;;5055262;28;20044;-61
2021/01/01 09:23:52;;;;;;;28.55;20.13;;;4.00;87.70;;;;;;5055370;28;20051;-62
2021/01/01 09:26:27;;;;;;;30.70;21.52;;;4.00;87.40;;;;;;5055026;28;20037;-62
2021/01/01 09:29:03;;;;;;;;;;;3.70;88.80;;;;;;5055944;28;20033;-63
2021/01/01 09:31:31;;;;;;;29.45;21.25;;;3.60;89.60;;;;;;5054836;28;19976;-62
2021/01/01 09:33:59;;;;;;;33.58;22.80;;;3.50;90.30;;;;;;5054898;28;20087;-63
2021/01/01 09:36:24;;;;;;;28.58;20.02;;;3.50;90.80;;;;;;5054453;28;20638;-62
2021/01/01 09:38:50;;;;;;;31.38;21.55;;;3.60;90.40;;;;;;5054749;28;20033;-62
2021/01/01 09:41:16;;;;;;;31.10;20.30;;;3.60;90.00;;;;;;5054065;28;20033;-63
2021/01/01 09:43:43;;;;;;;31.90;21.60;;;3.70;90.00;;;;;;5036588;28;20078;-63
2021/01/01 09:46:08;;;;;;;32.40;21.88;;;3.70;89.80;;;;;;5054445;28;20033;-63
2021/01/01 09:48:34;;;;;;;32.20;23.05;;;3.80;89.50;;;;;;5044714;28;20242;-62
2021/01/01 09:51:00;;;;;;;30.52;22.15;;;3.80;89.10;;;;;;5034660;28;20034;-62
2021/01/01 09:53:25;;;;;;;33.55;23.00;;;3.90;88.80;;;;;;5051515;28;20049;-62
2021/01/01 09:55:51;;;;;;;31.13;21.35;;;3.50;90.30;;;;;;5054292;28;20025;-62
2021/01/01 09:58:18;;;;;;;31.50;22.85;;;3.70;90.30;;;;;;5054229;28;20417;-63
2021/01/01 10:00:44;;;;;;;34.75;22.00;;;3.80;89.80;;;;;;5054287;28;20061;-62
2021/01/01 10:03:10;;;;;;;35.30;24.63;;;3.70;90.20;;;;;;5053933;28;20041;-62
2021/01/01 10:05:35;;;;;;;33.63;23.42;;;3.60;90.20;;;;;;5053657;28;20410;-62
2021/01/01 10:08:01;;;;;;;33.50;23.23;;;3.80;90.10;;;;;;5052222;28;20047;-63
2021/01/01 10:10:29;;;;;;;34.20;22.73;;;3.80;90.00;;;;;;5054344;28;20090;-62
2021/01/01 10:12:54;;;;;;;34.95;23.25;;;3.70;90.10;;;;;;5054163;28;20056;-62
2021/01/01 10:15:20;;;;;;;31.83;22.30;;;3.80;90.00;;;;;;5053415;28;20064;-63
2021/01/01 10:17:45;;;;;;;32.22;22.40;;;3.70;90.40;;;;;;5053191;28;20724;-63
2021/01/01 10:20:12;;;;;;;32.95;21.60;;;3.80;90.00;;;;;;5053135;28;20039;-62
2021/01/01 10:22:37;;;;;;;33.85;23.35;;;3.90;90.00;;;;;;5053667;28;20047;-62
2021/01/01 10:25:03;;;;;;;35.28;24.52;;;4.10;88.80;;;;;;5053612;28;20037;-64
2021/01/01 10:27:29;;;;;;;34.92;22.48;;;4.00;88.70;;;;;;5052041;28;20068;-63
2021/01/01 10:29:54;;;;;;;52.55;32.97;;;4.10;88.20;;;;;;5053990;28;20060;-61
2021/01/01 10:32:20;;;;;;;41.08;26.65;;;4.10;88.50;;;;;;5053348;28;20056;-62
2021/01/01 10:34:45;;;;;;;55.78;34.25;;;4.20;88.50;;;;;;5055788;28;20400;-62
2021/01/01 10:37:12;;;;;;;52.13;31.33;;;4.20;88.20;;;;;;5063522;28;20040;-62
2021/01/01 10:39:38;;;;;;;33.83;22.95;;;4.30;88.10;;;;;;5066846;28;20056;-63
2021/01/01 10:42:05;;;;;;;32.85;21.83;;;4.40;87.20;;;;;;5072405;28;20399;-63
2021/01/01 10:44:30;;;;;;;36.72;22.55;;;4.30;87.60;;;;;;5060546;28;20496;-63
2021/01/01 10:46:56;;;;;;;34.50;22.42;;;4.40;87.20;;;;;;5053548;28;20120;-63
2021/01/01 10:49:23;;;;;;;35.08;22.40;;;4.40;87.50;;;;;;5036978;28;20033;-62
2021/01/01 10:51:49;;;;;;;37.75;23.67;;;4.40;87.40;;;;;;5053885;28;20033;-62
2021/01/01 10:54:15;;;;;;;55.00;34.30;;;4.40;87.10;;;;;;5052831;28;20025;-63
2021/01/01 10:56:40;;;;;;;36.85;25.63;;;4.40;86.70;;;;;;5053284;28;20025;-62
2021/01/01 10:59:06;;;;;;;37.95;23.75;;;4.50;86.10;;;;;;5053490;28;20116;-61
2021/01/01 11:01:32;;;;;;;32.83;21.23;;;4.50;86.00;;;;;;5053871;28;20029;-63
2021/01/01 11:03:58;;;;;;;33.05;23.63;;;4.50;86.50;;;;;;5034584;28;20052;-63
2021/01/01 11:06:23;;;;;;;36.60;24.20;;;4.40;87.30;;;;;;5049126;28;20041;-62
2021/01/01 11:08:49;;;;;;;50.67;29.92;;;4.60;86.80;;;;;;5052085;28;20073;-62
2021/01/01 11:11:20;;;;;;;47.38;30.40;;;4.40;87.60;;;;;;5052772;28;20045;-62
2021/01/01 11:14:01;;;;;;;35.90;23.33;;;4.40;88.10;;;;;;5051502;28;20029;-62
2021/01/01 12:25:15;;;;;;;27.73;20.15;;;4.70;85.60;;;;;;5053078;28;20056;-61
2021/01/01 12:27:42;;;;;;;33.20;21.25;;;4.70;84.90;;;;;;5033488;28;20384;-62
2021/01/01 12:30:09;;;;;;;30.73;21.23;;;4.70;84.60;;;;;;5051997;28;20061;-63
2021/01/01 12:32:41;;;;;;;32.15;21.05;;;4.60;84.80;;;;;;5051902;28;20556;-62
2021/01/01 12:35:08;;;;;;;29.23;19.90;;;4.50;84.80;;;;;;5051681;28;20021;-63
2021/01/01 12:37:34;;;;;;;31.00;21.30;;;4.30;86.40;;;;;;5051360;28;20021;-62
2021/01/01 12:40:00;;;;;;;33.28;21.45;;;4.30;86.80;;;;;;5050370;28;20652;-62
2021/01/01 12:42:26;;;;;;;31.15;21.40;;;4.40;86.10;;;;;;5051246;28;20040;-61
2021/01/01 12:44:51;;;;;;;30.73;20.88;;;4.50;85.40;;;;;;5050540;28;20067;-62
2021/01/01 12:47:17;;;;;;;33.53;22.05;;;4.60;85.40;;;;;;5051250;28;20454;-63
2021/01/01 12:49:44;;;;;;;33.72;20.65;;;4.50;85.60;;;;;;5049866;28;20037;-63
2021/01/01 12:52:09;;;;;;;30.42;19.63;;;4.30;86.50;;;;;;5050711;28;20626;-62
2021/01/01 12:54:35;;;;;;;29.02;20.23;;;4.30;87.10;;;;;;5050272;28;20052;-61
2021/01/01 12:57:01;;;;;;;28.90;19.35;;;4.40;86.80;;;;;;5051622;28;20035;-62
2021/01/01 12:59:26;;;;;;;33.33;21.38;;;4.50;86.50;;;;;;5051412;28;20076;-62
2021/01/01 13:01:53;;;;;;;38.75;23.35;;;4.60;86.30;;;;;;5054284;28;20117;-63
2021/01/01 13:04:19;;;;;;;34.53;20.83;;;4.60;85.70;;;;;;5054606;28;20029;-64
2021/01/01 13:06:45;;;;;;;38.08;24.75;;;4.70;85.30;;;;;;5053823;28;20041;-63
2021/01/01 13:09:10;;;;;;;43.97;26.40;;;4.60;85.40;;;;;;5052995;28;20356;-61
2021/01/01 13:11:42;;;;;;;36.35;24.27;;;4.70;85.00;;;;;;5049660;28;20585;-62
2021/01/01 13:14:07;;;;;;;31.23;20.65;;;4.60;85.40;;;;;;5032413;28;20053;-62
2021/01/01 13:16:33;;;;;;;33.40;21.38;;;4.70;84.70;;;;;;5038988;28;20032;-62
2021/01/01 13:18:58;;;;;;;32.92;20.77;;;4.70;84.60;;;;;;5056611;28;20056;-63
2021/01/01 13:21:29;;;;;;;33.13;21.27;;;4.70;84.50;;;;;;5054745;28;20032;-62
2021/01/01 13:23:55;;;;;;;33.92;20.52;;;4.70;84.80;;;;;;5057253;28;20087;-65
2021/01/01 13:26:25;;;;;;;31.38;20.88;;;4.70;84.40;;;;;;5057985;28;20049;-63
2021/01/01 13:28:52;;;;;;;32.38;21.10;;;4.50;85.80;;;;;;5065124;28;20039;-62
2021/01/01 13:31:18;;;;;;;35.17;21.88;;;4.50;85.90;;;;;;5060904;28;20065;-63
2021/01/01 13:33:45;;;;;;;32.97;21.02;;;4.50;85.60;;;;;;5062621;28;20048;-64
2021/01/01 13:36:16;;;;;;;39.65;24.80;;;4.60;85.30;;;;;;5055784;28;20033;-63
2021/01/01 13:38:42;;;;;;;42.20;26.13;;;4.60;85.30;;;;;;5053676;28;20045;-62
2021/01/01 13:41:13;;;;;;;38.85;24.17;;;4.50;85.70;;;;;;5054074;28;20025;-64
2021/01/01 13:43:40;;;;;;;41.60;24.63;;;4.10;87.80;;;;;;5052130;28;20127;-62
2021/01/01 13:46:07;;;;;;;44.75;27.27;;;4.10;88.10;;;;;;5053481;28;20136;-61
2021/01/01 13:48:34;;;;;;;43.17;25.08;;;4.20;87.60;;;;;;5054653;28;20532;-62
2021/01/01 13:51:00;;;;;;;47.72;27.58;;;4.20;87.20;;;;;;5052407;28;20553;-61